sensor_id;sensor_type;location;lat;lon;timestamp;temperature;humidity
55036;DHT22;40936;53.008;6.556;2023-04-27T00:00:06;2.60;99.90
55036;DHT22;40936;53.008;6.556;2023-04-27T00:02:35;2.40;99.90
55036;DHT22;40936;53.008;6.556;2023-04-27T00:05:03;2.30;99.90
55036;DHT22;40936;53.008;6.556;2023-04-27T00:09:56;2.40;99.90
55036;DHT22;40936;53.008;6.556;2023-04-27T00:12:22;3.40;99.90
55036;DHT22;40936;53.008;6.556;2023-04-27T00:14:48;2.30;99.90
55036;DHT22;40936;53.008;6.556;2023-04-27T00:17:13;4.10;99.90
55036;DHT22;40936;53.008;6.556;2023-04-27T00:19:39;3.60;99.90
55036;DHT22;40936;53.008;6.556;2023-04-27T00:22:07;4.30;99.90
55036;DHT22;40936;53.008;6.556;2023-04-27T00:24:33;3.80;99.90
55036;DHT22;40936;53.008;6.556;2023-04-27T00:26:58;2.40;99.90
55036;DHT22;40936;53.008;6.556;2023-04-27T00:29:24;2.30;99.90
55036;DHT22;40936;53.008;6.556;2023-04-27T00:31:50;2.50;99.90
55036;DHT22;40936;53.008;6.556;2023-04-27T00:34:15;2.50;99.90
55036;DHT22;40936;53.008;6.556;2023-04-27T00:36:41;3.00;99.90
55036;DHT22;40936;53.008;6.556;2023-04-27T00:39:07;2.60;99.90
55036;DHT22;40936;53.008;6.556;2023-04-27T00:41:36;2.70;99.90
55036;DHT22;40936;53.008;6.556;2023-04-27T00:44:02;3.00;99.90
55036;DHT22;40936;53.008;6.556;2023-04-27T00:46:28;2.80;99.90
55036;DHT22;40936;53.008;6.556;2023-04-27T00:48:55;3.10;99.90
55036;DHT22;40936;53.008;6.556;2023-04-27T00:51:21;3.00;99.90
55036;DHT22;40936;53.008;6.556;2023-04-27T00:53:52;4.10;99.90
55036;DHT22;40936;53.008;6.556;2023-04-27T00:56:18;3.20;99.90
55036;DHT22;40936;53.008;6.556;2023-04-27T01:01:10;3.20;99.90
55036;DHT22;40936;53.008;6.556;2023-04-27T01:03:37;3.20;99.90
55036;DHT22;40936;53.008;6.556;2023-04-27T01:06:02;3.70;99.90
55036;DHT22;40936;53.008;6.556;2023-04-27T01:08:28;3.30;99.90
55036;DHT22;40936;53.008;6.556;2023-04-27T01:10:54;4.40;99.90
55036;DHT22;40936;53.008;6.556;2023-04-27T01:13:20;4.00;99.90
55036;DHT22;40936;53.008;6.556;2023-04-27T01:15:46;3.60;99.90
55036;DHT22;40936;53.008;6.556;2023-04-27T01:18:13;3.50;99.90
55036;DHT22;40936;53.008;6.556;2023-04-27T01:20:38;3.10;99.90
55036;DHT22;40936;53.008;6.556;2023-04-27T01:23:04;3.70;99.90
55036;DHT22;40936;53.008;6.556;2023-04-27T01:25:30;2.90;99.90
55036;DHT22;40936;53.008;6.556;2023-04-27T01:27:56;4.10;99.90
55036;DHT22;40936;53.008;6.556;2023-04-27T01:30:22;3.90;99.90
55036;DHT22;40936;53.008;6.556;2023-04-27T01:32:48;3.10;99.90
55036;DHT22;40936;53.008;6.556;2023-04-27T01:35:14;-0.10;99.90
55036;DHT22;40936;53.008;6.556;2023-04-27T01:37:40;2.60;99.90
55036;DHT22;40936;53.008;6.556;2023-04-27T01:40:06;2.60;99.90
55036;DHT22;40936;53.008;6.556;2023-04-27T01:42:32;2.50;99.90
55036;DHT22;40936;53.008;6.556;2023-04-27T01:44:58;2.50;99.90
55036;DHT22;40936;53.008;6.556;2023-04-27T01:47:25;2.40;99.90
55036;DHT22;40936;53.008;6.556;2023-04-27T01:49:51;3.60;99.90
55036;DHT22;40936;53.008;6.556;2023-04-27T01:52:17;2.80;99.90
55036;DHT22;40936;53.008;6.556;2023-04-27T01:54:42;2.50;99.90
55036;DHT22;40936;53.008;6.556;2023-04-27T01:57:08;2.30;99.90
55036;DHT22;40936;53.008;6.556;2023-04-27T01:59:34;3.70;99.90
55036;DHT22;40936;53.008;6.556;2023-04-27T02:01:59;2.20;99.90
55036;DHT22;40936;53.008;6.556;2023-04-27T02:04:25;3.60;99.90
55036;DHT22;40936;53.008;6.556;2023-04-27T02:06:51;2.90;99.90
55036;DHT22;40936;53.008;6.556;2023-04-27T02:09:17;1.70;99.90
55036;DHT22;40936;53.008;6.556;2023-04-27T02:11:42;2.10;99.90
55036;DHT22;40936;53.008;6.556;2023-04-27T02:14:08;2.10;99.90
55036;DHT22;40936;53.008;6.556;2023-04-27T02:16:34;3.50;1.00
55036;DHT22;40936;53.008;6.556;2023-04-27T02:19:00;2.40;99.90
55036;DHT22;40936;53.008;6.556;2023-04-27T02:21:26;4.40;99.90
55036;DHT22;40936;53.008;6.556;2023-04-27T02:23:52;4.40;99.90
55036;DHT22;40936;53.008;6.556;2023-04-27T02:26:20;4.10;99.90
55036;DHT22;40936;53.008;6.556;2023-04-27T02:28:47;2.30;99.90
55036;DHT22;40936;53.008;6.556;2023-04-27T02:31:13;3.10;99.90
55036;DHT22;40936;53.008;6.556;2023-04-27T02:33:39;2.70;99.90
55036;DHT22;40936;53.008;6.556;2023-04-27T02:36:09;2.20;99.90
55036;DHT22;40936;53.008;6.556;2023-04-27T02:38:35;2.20;99.90
55036;DHT22;40936;53.008;6.556;2023-04-27T02:41:01;2.00;99.90
55036;DHT22;40936;53.008;6.556;2023-04-27T02:43:26;2.10;99.90
55036;DHT22;40936;53.008;6.556;2023-04-27T02:45:52;2.10;99.90
55036;DHT22;40936;53.008;6.556;2023-04-27T02:48:19;3.10;99.90
55036;DHT22;40936;53.008;6.556;2023-04-27T02:50:44;1.70;99.90
55036;DHT22;40936;53.008;6.556;2023-04-27T02:53:11;1.90;99.90
55036;DHT22;40936;53.008;6.556;2023-04-27T02:55:37;2.90;99.90
55036;DHT22;40936;53.008;6.556;2023-04-27T02:58:03;2.80;99.90
55036;DHT22;40936;53.008;6.556;2023-04-27T03:00:29;2.40;99.90
55036;DHT22;40936;53.008;6.556;2023-04-27T03:02:55;1.70;99.90
55036;DHT22;40936;53.008;6.556;2023-04-27T03:05:21;1.80;99.90
55036;DHT22;40936;53.008;6.556;2023-04-27T03:07:47;1.90;99.90
55036;DHT22;40936;53.008;6.556;2023-04-27T03:10:12;2.50;99.90
55036;DHT22;40936;53.008;6.556;2023-04-27T03:12:38;2.30;99.90
55036;DHT22;40936;53.008;6.556;2023-04-27T03:15:04;1.70;99.90
55036;DHT22;40936;53.008;6.556;2023-04-27T03:17:30;1.40;99.90
55036;DHT22;40936;53.008;6.556;2023-04-27T03:19:56;1.40;99.90
55036;DHT22;40936;53.008;6.556;2023-04-27T03:22:21;2.40;99.90
55036;DHT22;40936;53.008;6.556;2023-04-27T03:24:47;1.60;99.90
55036;DHT22;40936;53.008;6.556;2023-04-27T03:27:13;1.60;99.90
55036;DHT22;40936;53.008;6.556;2023-04-27T03:29:38;3.30;99.90
55036;DHT22;40936;53.008;6.556;2023-04-27T03:32:04;2.20;99.90
55036;DHT22;40936;53.008;6.556;2023-04-27T03:34:30;1.50;99.90
55036;DHT22;40936;53.008;6.556;2023-04-27T03:36:56;2.70;99.90
55036;DHT22;40936;53.008;6.556;2023-04-27T03:39:22;1.60;99.90
55036;DHT22;40936;53.008;6.556;2023-04-27T03:41:48;3.30;99.90
55036;DHT22;40936;53.008;6.556;2023-04-27T03:44:13;1.80;99.90
55036;DHT22;40936;53.008;6.556;2023-04-27T03:46:39;2.00;99.90
55036;DHT22;40936;53.008;6.556;2023-04-27T03:49:05;1.40;99.90
55036;DHT22;40936;53.008;6.556;2023-04-27T03:51:32;2.90;99.90
55036;DHT22;40936;53.008;6.556;2023-04-27T03:53:58;2.80;99.90
55036;DHT22;40936;53.008;6.556;2023-04-27T03:56:24;1.10;99.90
55036;DHT22;40936;53.008;6.556;2023-04-27T03:58:49;1.30;99.90
55036;DHT22;40936;53.008;6.556;2023-04-27T04:01:15;1.40;99.90
55036;DHT22;40936;53.008;6.556;2023-04-27T04:03:44;2.40;99.90
55036;DHT22;40936;53.008;6.556;2023-04-27T04:06:09;1.40;99.90
55036;DHT22;40936;53.008;6.556;2023-04-27T04:08:36;1.30;99.90
55036;DHT22;40936;53.008;6.556;2023-04-27T04:11:02;3.50;99.90
55036;DHT22;40936;53.008;6.556;2023-04-27T04:13:28;1.40;99.90
55036;DHT22;40936;53.008;6.556;2023-04-27T04:16:08;1.20;99.90
55036;DHT22;40936;53.008;6.556;2023-04-27T04:18:34;1.90;99.90
55036;DHT22;40936;53.008;6.556;2023-04-27T04:21:00;3.10;99.90
55036;DHT22;40936;53.008;6.556;2023-04-27T04:23:26;1.40;99.90
55036;DHT22;40936;53.008;6.556;2023-04-27T04:25:53;1.80;99.90
55036;DHT22;40936;53.008;6.556;2023-04-27T04:28:21;3.10;99.90
55036;DHT22;40936;53.008;6.556;2023-04-27T04:30:47;3.10;99.90
55036;DHT22;40936;53.008;6.556;2023-04-27T04:33:14;2.40;99.90
55036;DHT22;40936;53.008;6.556;2023-04-27T04:35:40;0.40;99.90
55036;DHT22;40936;53.008;6.556;2023-04-27T04:38:09;4.00;99.90
55036;DHT22;40936;53.008;6.556;2023-04-27T04:40:37;1.40;99.90
55036;DHT22;40936;53.008;6.556;2023-04-27T04:43:03;3.10;99.90
55036;DHT22;40936;53.008;6.556;2023-04-27T04:47:55;1.60;99.90
55036;DHT22;40936;53.008;6.556;2023-04-27T04:50:21;2.80;99.90
55036;DHT22;40936;53.008;6.556;2023-04-27T04:52:48;3.40;99.90
55036;DHT22;40936;53.008;6.556;2023-04-27T04:55:14;3.20;99.90
55036;DHT22;40936;53.008;6.556;2023-04-27T04:57:39;2.00;99.90
55036;DHT22;40936;53.008;6.556;2023-04-27T05:00:05;1.70;99.90
55036;DHT22;40936;53.008;6.556;2023-04-27T05:02:36;3.20;99.90
55036;DHT22;40936;53.008;6.556;2023-04-27T05:05:02;3.00;99.90
55036;DHT22;40936;53.008;6.556;2023-04-27T05:07:27;0.70;99.90
55036;DHT22;40936;53.008;6.556;2023-04-27T05:09:53;1.80;99.90
55036;DHT22;40936;53.008;6.556;2023-04-27T05:12:19;1.90;99.90
55036;DHT22;40936;53.008;6.556;2023-04-27T05:14:45;1.40;1.00
55036;DHT22;40936;53.008;6.556;2023-04-27T05:17:10;2.00;1.00
55036;DHT22;40936;53.008;6.556;2023-04-27T05:19:36;3.00;99.90
55036;DHT22;40936;53.008;6.556;2023-04-27T05:22:02;3.60;1.00
55036;DHT22;40936;53.008;6.556;2023-04-27T05:24:28;2.40;1.00
55036;DHT22;40936;53.008;6.556;2023-04-27T05:26:53;3.00;99.90
55036;DHT22;40936;53.008;6.556;2023-04-27T05:29:20;2.70;99.90
55036;DHT22;40936;53.008;6.556;2023-04-27T05:31:46;3.30;1.00
55036;DHT22;40936;53.008;6.556;2023-04-27T05:34:11;2.90;99.90
55036;DHT22;40936;53.008;6.556;2023-04-27T05:36:38;2.60;1.00
55036;DHT22;40936;53.008;6.556;2023-04-27T05:41:29;4.60;1.00
55036;DHT22;40936;53.008;6.556;2023-04-27T05:43:55;3.50;99.90
55036;DHT22;40936;53.008;6.556;2023-04-27T05:46:21;5.10;99.90
55036;DHT22;40936;53.008;6.556;2023-04-27T05:48:47;3.70;99.90
55036;DHT22;40936;53.008;6.556;2023-04-27T05:51:12;3.80;99.90
55036;DHT22;40936;53.008;6.556;2023-04-27T05:53:38;3.20;38.10
55036;DHT22;40936;53.008;6.556;2023-04-27T05:56:04;3.70;15.10
55036;DHT22;40936;53.008;6.556;2023-04-27T05:58:32;2.80;4.50
55036;DHT22;40936;53.008;6.556;2023-04-27T06:00:59;5.50;1.00
55036;DHT22;40936;53.008;6.556;2023-04-27T06:03:25;3.80;76.10
55036;DHT22;40936;53.008;6.556;2023-04-27T06:05:58;3.70;52.50
55036;DHT22;40936;53.008;6.556;2023-04-27T06:08:25;3.70;94.70
55036;DHT22;40936;53.008;6.556;2023-04-27T06:10:51;3.80;99.90
55036;DHT22;40936;53.008;6.556;2023-04-27T06:13:17;3.80;76.90
55036;DHT22;40936;53.008;6.556;2023-04-27T06:15:43;3.90;99.90
55036;DHT22;40936;53.008;6.556;2023-04-27T06:18:09;4.20;99.90
55036;DHT22;40936;53.008;6.556;2023-04-27T06:20:35;4.30;97.10
55036;DHT22;40936;53.008;6.556;2023-04-27T06:23:01;4.40;59.00
55036;DHT22;40936;53.008;6.556;2023-04-27T06:25:27;5.00;1.00
55036;DHT22;40936;53.008;6.556;2023-04-27T06:27:57;5.60;1.00
55036;DHT22;40936;53.008;6.556;2023-04-27T06:30:25;7.30;1.00
55036;DHT22;40936;53.008;6.556;2023-04-27T06:32:51;6.10;1.00
55036;DHT22;40936;53.008;6.556;2023-04-27T06:35:17;5.20;1.00
55036;DHT22;40936;53.008;6.556;2023-04-27T06:37:43;5.10;99.90
55036;DHT22;40936;53.008;6.556;2023-04-27T06:40:09;5.20;99.90
55036;DHT22;40936;53.008;6.556;2023-04-27T06:42:36;7.70;99.90
55036;DHT22;40936;53.008;6.556;2023-04-27T06:45:02;6.70;99.90
55036;DHT22;40936;53.008;6.556;2023-04-27T06:47:29;5.70;99.90
55036;DHT22;40936;53.008;6.556;2023-04-27T06:49:54;6.00;99.90
55036;DHT22;40936;53.008;6.556;2023-04-27T06:52:20;5.90;99.90
55036;DHT22;40936;53.008;6.556;2023-04-27T06:54:46;6.00;99.90
55036;DHT22;40936;53.008;6.556;2023-04-27T06:57:12;6.10;99.90
55036;DHT22;40936;53.008;6.556;2023-04-27T07:02:04;6.30;99.90
55036;DHT22;40936;53.008;6.556;2023-04-27T07:04:30;6.40;99.90
55036;DHT22;40936;53.008;6.556;2023-04-27T07:06:56;6.50;99.90
55036;DHT22;40936;53.008;6.556;2023-04-27T07:09:21;6.70;99.90
55036;DHT22;40936;53.008;6.556;2023-04-27T07:11:47;6.70;99.90
55036;DHT22;40936;53.008;6.556;2023-04-27T07:14:13;6.90;99.90
55036;DHT22;40936;53.008;6.556;2023-04-27T07:16:39;6.90;99.90
55036;DHT22;40936;53.008;6.556;2023-04-27T07:19:04;7.00;99.90
55036;DHT22;40936;53.008;6.556;2023-04-27T07:21:30;7.30;99.90
55036;DHT22;40936;53.008;6.556;2023-04-27T07:23:56;7.70;99.90
55036;DHT22;40936;53.008;6.556;2023-04-27T07:26:22;9.20;99.90
55036;DHT22;40936;53.008;6.556;2023-04-27T07:28:48;10.80;91.90
55036;DHT22;40936;53.008;6.556;2023-04-27T07:31:15;11.70;62.30
55036;DHT22;40936;53.008;6.556;2023-04-27T07:33:40;12.80;24.60
55036;DHT22;40936;53.008;6.556;2023-04-27T07:36:06;14.20;19.60
55036;DHT22;40936;53.008;6.556;2023-04-27T07:38:32;14.20;1.00
55036;DHT22;40936;53.008;6.556;2023-04-27T07:40:59;14.90;1.00
55036;DHT22;40936;53.008;6.556;2023-04-27T07:43:30;15.90;1.00
55036;DHT22;40936;53.008;6.556;2023-04-27T07:45:59;15.60;1.00
55036;DHT22;40936;53.008;6.556;2023-04-27T07:48:26;16.10;1.00
55036;DHT22;40936;53.008;6.556;2023-04-27T07:50:53;15.30;1.00
55036;DHT22;40936;53.008;6.556;2023-04-27T07:53:19;15.70;1.00
55036;DHT22;40936;53.008;6.556;2023-04-27T07:55:45;16.00;1.00
55036;DHT22;40936;53.008;6.556;2023-04-27T07:58:11;15.60;1.00
55036;DHT22;40936;53.008;6.556;2023-04-27T08:00:37;16.20;1.00
55036;DHT22;40936;53.008;6.556;2023-04-27T08:03:03;16.10;1.00
55036;DHT22;40936;53.008;6.556;2023-04-27T08:05:29;15.70;1.00
55036;DHT22;40936;53.008;6.556;2023-04-27T08:07:54;15.80;1.00
55036;DHT22;40936;53.008;6.556;2023-04-27T08:10:21;15.70;1.00
55036;DHT22;40936;53.008;6.556;2023-04-27T08:12:47;15.60;1.00
55036;DHT22;40936;53.008;6.556;2023-04-27T08:15:12;15.60;1.00
55036;DHT22;40936;53.008;6.556;2023-04-27T08:17:38;15.40;1.00
55036;DHT22;40936;53.008;6.556;2023-04-27T08:20:07;15.70;1.00
55036;DHT22;40936;53.008;6.556;2023-04-27T08:22:39;15.40;1.00
55036;DHT22;40936;53.008;6.556;2023-04-27T08:25:06;16.50;1.00
55036;DHT22;40936;53.008;6.556;2023-04-27T08:27:33;16.80;1.00
55036;DHT22;40936;53.008;6.556;2023-04-27T08:30:00;16.50;1.00
55036;DHT22;40936;53.008;6.556;2023-04-27T08:32:26;16.10;1.00
55036;DHT22;40936;53.008;6.556;2023-04-27T08:34:52;16.10;1.00
55036;DHT22;40936;53.008;6.556;2023-04-27T08:37:18;16.50;1.00
55036;DHT22;40936;53.008;6.556;2023-04-27T08:39:43;16.80;1.00
55036;DHT22;40936;53.008;6.556;2023-04-27T08:42:09;16.80;1.00
55036;DHT22;40936;53.008;6.556;2023-04-27T08:44:39;16.30;1.00
55036;DHT22;40936;53.008;6.556;2023-04-27T08:47:05;16.10;1.00
55036;DHT22;40936;53.008;6.556;2023-04-27T08:49:31;15.70;1.00
55036;DHT22;40936;53.008;6.556;2023-04-27T08:51:57;17.00;1.00
55036;DHT22;40936;53.008;6.556;2023-04-27T08:54:23;17.10;1.00
55036;DHT22;40936;53.008;6.556;2023-04-27T08:56:48;18.60;1.00
55036;DHT22;40936;53.008;6.556;2023-04-27T08:59:14;19.80;1.00
55036;DHT22;40936;53.008;6.556;2023-04-27T09:01:46;19.90;1.00
55036;DHT22;40936;53.008;6.556;2023-04-27T09:04:13;20.80;1.00
55036;DHT22;40936;53.008;6.556;2023-04-27T09:06:38;21.40;1.00
55036;DHT22;40936;53.008;6.556;2023-04-27T09:09:04;19.60;1.00
55036;DHT22;40936;53.008;6.556;2023-04-27T09:11:32;20.30;1.00
55036;DHT22;40936;53.008;6.556;2023-04-27T09:13:59;19.70;1.00
55036;DHT22;40936;53.008;6.556;2023-04-27T09:16:26;20.90;1.00
55036;DHT22;40936;53.008;6.556;2023-04-27T09:18:52;20.80;1.00
55036;DHT22;40936;53.008;6.556;2023-04-27T09:21:25;19.80;1.00
55036;DHT22;40936;53.008;6.556;2023-04-27T09:23:52;20.80;1.00
55036;DHT22;40936;53.008;6.556;2023-04-27T09:26:19;21.50;1.00
55036;DHT22;40936;53.008;6.556;2023-04-27T09:28:50;20.90;1.00
55036;DHT22;40936;53.008;6.556;2023-04-27T09:31:16;20.60;1.00
55036;DHT22;40936;53.008;6.556;2023-04-27T09:33:42;20.50;1.00
55036;DHT22;40936;53.008;6.556;2023-04-27T09:36:08;21.40;1.00
55036;DHT22;40936;53.008;6.556;2023-04-27T09:38:33;20.00;1.00
55036;DHT22;40936;53.008;6.556;2023-04-27T09:40:59;21.60;1.00
55036;DHT22;40936;53.008;6.556;2023-04-27T09:43:25;22.30;1.00
55036;DHT22;40936;53.008;6.556;2023-04-27T09:45:53;21.50;1.00
55036;DHT22;40936;53.008;6.556;2023-04-27T09:48:19;21.70;1.00
55036;DHT22;40936;53.008;6.556;2023-04-27T09:50:45;20.00;1.00
55036;DHT22;40936;53.008;6.556;2023-04-27T09:53:13;21.70;1.00
55036;DHT22;40936;53.008;6.556;2023-04-27T09:55:42;22.90;1.00
55036;DHT22;40936;53.008;6.556;2023-04-27T10:00:57;20.60;1.00
55036;DHT22;40936;53.008;6.556;2023-04-27T10:08:28;21.00;1.00
55036;DHT22;40936;53.008;6.556;2023-04-27T10:10:53;21.60;1.00
55036;DHT22;40936;53.008;6.556;2023-04-27T10:13:20;21.00;1.00
55036;DHT22;40936;53.008;6.556;2023-04-27T10:15:46;21.20;1.00
55036;DHT22;40936;53.008;6.556;2023-04-27T10:18:12;21.80;1.00
55036;DHT22;40936;53.008;6.556;2023-04-27T10:20:37;22.60;1.00
55036;DHT22;40936;53.008;6.556;2023-04-27T10:23:03;21.20;1.00
55036;DHT22;40936;53.008;6.556;2023-04-27T10:25:29;21.30;1.00
55036;DHT22;40936;53.008;6.556;2023-04-27T10:28:01;21.20;1.00
55036;DHT22;40936;53.008;6.556;2023-04-27T10:30:31;21.00;1.00
55036;DHT22;40936;53.008;6.556;2023-04-27T10:32:58;20.10;1.00
55036;DHT22;40936;53.008;6.556;2023-04-27T10:38:04;17.10;1.00
55036;DHT22;40936;53.008;6.556;2023-04-27T10:40:31;17.20;1.00
55036;DHT22;40936;53.008;6.556;2023-04-27T10:43:06;17.30;1.00
55036;DHT22;40936;53.008;6.556;2023-04-27T10:45:32;17.30;1.00
55036;DHT22;40936;53.008;6.556;2023-04-27T10:47:58;18.10;1.00
55036;DHT22;40936;53.008;6.556;2023-04-27T10:50:24;18.00;1.00
55036;DHT22;40936;53.008;6.556;2023-04-27T10:52:50;18.00;1.00
55036;DHT22;40936;53.008;6.556;2023-04-27T10:55:17;17.80;1.00
55036;DHT22;40936;53.008;6.556;2023-04-27T10:57:49;16.80;1.00
55036;DHT22;40936;53.008;6.556;2023-04-27T11:00:26;17.00;1.00
55036;DHT22;40936;53.008;6.556;2023-04-27T11:02:52;17.30;1.00
55036;DHT22;40936;53.008;6.556;2023-04-27T11:05:18;17.50;1.00
55036;DHT22;40936;53.008;6.556;2023-04-27T11:07:44;17.40;1.00
55036;DHT22;40936;53.008;6.556;2023-04-27T11:10:15;17.90;1.00
55036;DHT22;40936;53.008;6.556;2023-04-27T11:12:41;18.40;1.00
55036;DHT22;40936;53.008;6.556;2023-04-27T11:15:07;18.50;1.00
55036;DHT22;40936;53.008;6.556;2023-04-27T11:17:33;17.20;1.00
55036;DHT22;40936;53.008;6.556;2023-04-27T11:19:58;16.30;1.00
55036;DHT22;40936;53.008;6.556;2023-04-27T11:22:24;16.80;1.00
55036;DHT22;40936;53.008;6.556;2023-04-27T11:24:50;16.80;1.00
55036;DHT22;40936;53.008;6.556;2023-04-27T11:27:16;17.00;1.00
55036;DHT22;40936;53.008;6.556;2023-04-27T11:29:42;17.30;1.00
55036;DHT22;40936;53.008;6.556;2023-04-27T11:32:08;17.50;1.00
55036;DHT22;40936;53.008;6.556;2023-04-27T11:34:42;17.50;1.00
55036;DHT22;40936;53.008;6.556;2023-04-27T11:37:19;18.20;1.00
55036;DHT22;40936;53.008;6.556;2023-04-27T11:39:45;17.00;1.00
55036;DHT22;40936;53.008;6.556;2023-04-27T11:42:14;17.30;1.00
55036;DHT22;40936;53.008;6.556;2023-04-27T11:44:40;17.30;1.00
55036;DHT22;40936;53.008;6.556;2023-04-27T11:47:06;16.70;1.00
55036;DHT22;40936;53.008;6.556;2023-04-27T11:49:33;17.20;1.00
55036;DHT22;40936;53.008;6.556;2023-04-27T11:51:58;17.10;1.00
55036;DHT22;40936;53.008;6.556;2023-04-27T11:54:27;18.10;1.00
55036;DHT22;40936;53.008;6.556;2023-04-27T11:57:02;16.60;1.00
55036;DHT22;40936;53.008;6.556;2023-04-27T11:59:28;16.20;1.00
55036;DHT22;40936;53.008;6.556;2023-04-27T12:01:53;16.30;1.00
55036;DHT22;40936;53.008;6.556;2023-04-27T12:04:19;16.60;1.00
55036;DHT22;40936;53.008;6.556;2023-04-27T12:06:45;16.50;1.00
55036;DHT22;40936;53.008;6.556;2023-04-27T12:09:10;16.20;1.00
55036;DHT22;40936;53.008;6.556;2023-04-27T12:11:36;15.90;1.00
55036;DHT22;40936;53.008;6.556;2023-04-27T12:14:02;16.00;1.00
55036;DHT22;40936;53.008;6.556;2023-04-27T12:16:28;16.00;1.00
55036;DHT22;40936;53.008;6.556;2023-04-27T12:18:53;15.90;1.00
55036;DHT22;40936;53.008;6.556;2023-04-27T12:21:19;15.90;1.00
55036;DHT22;40936;53.008;6.556;2023-04-27T12:23:45;15.90;1.00
55036;DHT22;40936;53.008;6.556;2023-04-27T12:26:11;15.90;1.00
55036;DHT22;40936;53.008;6.556;2023-04-27T12:28:36;15.80;1.00
55036;DHT22;40936;53.008;6.556;2023-04-27T12:31:02;15.90;1.00
55036;DHT22;40936;53.008;6.556;2023-04-27T12:33:28;15.90;1.00
55036;DHT22;40936;53.008;6.556;2023-04-27T12:35:54;16.00;1.00
55036;DHT22;40936;53.008;6.556;2023-04-27T12:38:20;15.80;1.00
55036;DHT22;40936;53.008;6.556;2023-04-27T12:40:46;15.80;1.00
55036;DHT22;40936;53.008;6.556;2023-04-27T12:43:12;16.10;1.00
55036;DHT22;40936;53.008;6.556;2023-04-27T12:45:37;15.60;1.00
55036;DHT22;40936;53.008;6.556;2023-04-27T12:48:03;15.70;1.00
55036;DHT22;40936;53.008;6.556;2023-04-27T12:50:29;16.00;1.00
55036;DHT22;40936;53.008;6.556;2023-04-27T12:52:55;16.20;1.00
55036;DHT22;40936;53.008;6.556;2023-04-27T12:55:20;16.50;1.00
55036;DHT22;40936;53.008;6.556;2023-04-27T12:57:46;16.70;1.00
55036;DHT22;40936;53.008;6.556;2023-04-27T13:00:11;16.70;1.00
55036;DHT22;40936;53.008;6.556;2023-04-27T13:02:37;16.80;1.00
55036;DHT22;40936;53.008;6.556;2023-04-27T13:05:03;16.70;1.00
55036;DHT22;40936;53.008;6.556;2023-04-27T13:07:30;16.60;1.00
55036;DHT22;40936;53.008;6.556;2023-04-27T13:09:56;16.50;1.00
55036;DHT22;40936;53.008;6.556;2023-04-27T13:12:21;16.40;1.00
55036;DHT22;40936;53.008;6.556;2023-04-27T13:14:48;16.30;1.00
55036;DHT22;40936;53.008;6.556;2023-04-27T13:17:14;16.20;1.00
55036;DHT22;40936;53.008;6.556;2023-04-27T13:19:39;16.10;1.00
55036;DHT22;40936;53.008;6.556;2023-04-27T13:22:05;15.90;1.00
55036;DHT22;40936;53.008;6.556;2023-04-27T13:24:34;15.60;1.00
55036;DHT22;40936;53.008;6.556;2023-04-27T13:26:59;15.50;1.00
55036;DHT22;40936;53.008;6.556;2023-04-27T13:29:26;15.60;1.00
55036;DHT22;40936;53.008;6.556;2023-04-27T13:31:52;15.60;1.00
55036;DHT22;40936;53.008;6.556;2023-04-27T13:34:17;15.80;1.00
55036;DHT22;40936;53.008;6.556;2023-04-27T13:36:43;15.80;1.00
55036;DHT22;40936;53.008;6.556;2023-04-27T13:39:08;15.80;1.00
55036;DHT22;40936;53.008;6.556;2023-04-27T13:41:34;15.80;1.00
55036;DHT22;40936;53.008;6.556;2023-04-27T13:44:00;15.80;1.00
55036;DHT22;40936;53.008;6.556;2023-04-27T13:46:26;15.60;1.00
55036;DHT22;40936;53.008;6.556;2023-04-27T13:48:52;15.60;1.00
55036;DHT22;40936;53.008;6.556;2023-04-27T13:51:17;15.60;1.00
55036;DHT22;40936;53.008;6.556;2023-04-27T13:53:44;15.60;1.00
55036;DHT22;40936;53.008;6.556;2023-04-27T13:56:10;15.70;1.00
55036;DHT22;40936;53.008;6.556;2023-04-27T13:58:36;15.70;1.00
55036;DHT22;40936;53.008;6.556;2023-04-27T14:01:01;15.80;1.00
55036;DHT22;40936;53.008;6.556;2023-04-27T14:03:27;15.90;1.00
55036;DHT22;40936;53.008;6.556;2023-04-27T14:05:54;15.90;1.00
55036;DHT22;40936;53.008;6.556;2023-04-27T14:08:20;15.90;1.00
55036;DHT22;40936;53.008;6.556;2023-04-27T14:10:46;15.60;1.00
55036;DHT22;40936;53.008;6.556;2023-04-27T14:13:12;15.80;1.00
55036;DHT22;40936;53.008;6.556;2023-04-27T14:15:38;15.80;1.00
55036;DHT22;40936;53.008;6.556;2023-04-27T14:18:04;15.70;1.00
55036;DHT22;40936;53.008;6.556;2023-04-27T14:20:30;15.60;1.00
55036;DHT22;40936;53.008;6.556;2023-04-27T14:22:56;15.60;1.00
55036;DHT22;40936;53.008;6.556;2023-04-27T14:25:21;15.60;1.00
55036;DHT22;40936;53.008;6.556;2023-04-27T14:27:47;15.60;1.00
55036;DHT22;40936;53.008;6.556;2023-04-27T14:30:13;15.70;1.00
55036;DHT22;40936;53.008;6.556;2023-04-27T14:32:39;15.70;1.00
55036;DHT22;40936;53.008;6.556;2023-04-27T14:35:06;15.70;1.00
55036;DHT22;40936;53.008;6.556;2023-04-27T14:37:31;15.70;1.00
55036;DHT22;40936;53.008;6.556;2023-04-27T14:39:59;15.70;1.00
55036;DHT22;40936;53.008;6.556;2023-04-27T14:42:24;15.80;1.00
55036;DHT22;40936;53.008;6.556;2023-04-27T14:44:50;15.80;1.00
55036;DHT22;40936;53.008;6.556;2023-04-27T14:47:15;15.80;1.00
55036;DHT22;40936;53.008;6.556;2023-04-27T14:49:41;15.70;1.00
55036;DHT22;40936;53.008;6.556;2023-04-27T14:52:07;15.70;1.00
55036;DHT22;40936;53.008;6.556;2023-04-27T14:54:32;15.70;1.00
55036;DHT22;40936;53.008;6.556;2023-04-27T14:56:59;15.60;1.00
55036;DHT22;40936;53.008;6.556;2023-04-27T14:59:26;15.50;1.00
55036;DHT22;40936;53.008;6.556;2023-04-27T15:01:51;15.60;1.00
55036;DHT22;40936;53.008;6.556;2023-04-27T15:04:17;15.70;1.00
55036;DHT22;40936;53.008;6.556;2023-04-27T15:06:43;15.70;1.00
55036;DHT22;40936;53.008;6.556;2023-04-27T15:09:08;15.70;1.00
55036;DHT22;40936;53.008;6.556;2023-04-27T15:11:35;15.60;1.00
55036;DHT22;40936;53.008;6.556;2023-04-27T15:14:01;15.60;1.00
55036;DHT22;40936;53.008;6.556;2023-04-27T15:16:26;15.60;1.00
55036;DHT22;40936;53.008;6.556;2023-04-27T15:18:52;15.60;1.00
55036;DHT22;40936;53.008;6.556;2023-04-27T15:21:18;15.60;1.00
55036;DHT22;40936;53.008;6.556;2023-04-27T15:23:43;15.50;1.00
55036;DHT22;40936;53.008;6.556;2023-04-27T15:26:09;15.30;1.00
55036;DHT22;40936;53.008;6.556;2023-04-27T15:28:35;15.20;1.00
55036;DHT22;40936;53.008;6.556;2023-04-27T15:31:01;15.00;1.00
55036;DHT22;40936;53.008;6.556;2023-04-27T15:33:27;14.90;1.00
55036;DHT22;40936;53.008;6.556;2023-04-27T15:35:53;14.70;1.00
55036;DHT22;40936;53.008;6.556;2023-04-27T15:38:19;14.50;1.00
55036;DHT22;40936;53.008;6.556;2023-04-27T15:40:44;14.40;1.00
55036;DHT22;40936;53.008;6.556;2023-04-27T15:43:10;14.20;1.00
55036;DHT22;40936;53.008;6.556;2023-04-27T15:45:35;14.10;1.00
55036;DHT22;40936;53.008;6.556;2023-04-27T15:48:01;14.00;1.00
55036;DHT22;40936;53.008;6.556;2023-04-27T15:50:27;13.80;1.00
55036;DHT22;40936;53.008;6.556;2023-04-27T15:52:53;13.70;1.00
55036;DHT22;40936;53.008;6.556;2023-04-27T15:55:18;13.50;1.00
55036;DHT22;40936;53.008;6.556;2023-04-27T15:57:44;13.40;1.00
55036;DHT22;40936;53.008;6.556;2023-04-27T16:00:09;13.40;1.00
55036;DHT22;40936;53.008;6.556;2023-04-27T16:02:36;13.20;1.00